Time;durP1;ratioP1;P1;durP2;ratioP2;P2;SDS_P1;SDS_P2;PMS_P1;PMS_P2;Temp;Humidity;BMP_temperature;BMP_pressure;BME280_temperature;BME280_humidity;BME280_pressure;Samples;Min_cycle;Max_cycle;Signal;HPM_P1;HPM_P2
2021/07/13 00:01:07;;;;;;;6.50;5.13;;;20.50;99.90;;;;;;5032124;28;20487;-73
2021/07/13 00:03:53;;;;;;;7.83;4.80;;;20.40;99.90;;;;;;5032206;28;20451;-74
2021/07/13 00:06:39;;;;;;;8.47;5.30;;;20.40;99.90;;;;;;5030965;28;20457;-73
2021/07/13 00:09:26;;;;;;;6.07;4.63;;;20.40;99.90;;;;;;5018681;28;20463;-74
2021/07/13 00:12:12;;;;;;;9.77;5.47;;;20.30;99.90;;;;;;5036651;28;20593;-73
2021/07/13 00:14:57;;;;;;;6.53;4.40;;;20.30;99.90;;;;;;5032210;28;20452;-73
2021/07/13 00:17:43;;;;;;;6.37;4.03;;;20.30;99.90;;;;;;5035280;28;20844;-73
2021/07/13 00:20:29;;;;;;;7.10;4.80;;;20.40;99.90;;;;;;5034200;28;20465;-73
2021/07/13 00:23:15;;;;;;;6.43;4.67;;;20.30;99.90;;;;;;5029768;28;20973;-74
2021/07/13 00:26:02;;;;;;;6.37;5.30;;;20.30;99.90;;;;;;5052285;28;20412;-74
2021/07/13 00:28:47;;;;;;;6.70;4.67;;;20.30;99.90;;;;;;5031509;28;20462;-73
2021/07/13 00:31:33;;;;;;;5.50;4.50;;;20.30;99.90;;;;;;5032293;28;20404;-74
2021/07/13 00:34:18;;;;;;;6.93;4.30;;;20.30;99.90;;;;;;5012433;28;20437;-73
2021/07/13 00:37:04;;;;;;;11.27;4.83;;;20.30;99.90;;;;;;5032849;28;20456;-73
2021/07/13 00:39:50;;;;;;;5.30;4.07;;;20.30;99.90;;;;;;5023122;28;20447;-72
2021/07/13 00:42:38;;;;;;;6.70;4.27;;;20.30;99.90;;;;;;5025294;28;20467;-73
2021/07/13 00:45:24;;;;;;;7.80;4.70;;;20.30;99.90;;;;;;5024889;28;20457;-73
2021/07/13 00:48:10;;;;;;;6.43;4.90;;;20.20;99.90;;;;;;5012412;28;20763;-74
2021/07/13 00:50:58;;;;;;;6.00;4.60;;;20.20;99.90;;;;;;5030808;28;20443;-73
2021/07/13 00:53:45;;;;;;;7.27;3.80;;;20.30;99.90;;;;;;5022144;28;20549;-74
2021/07/13 00:56:32;;;;;;;4.07;3.40;;;20.30;99.90;;;;;;5031248;28;20443;-73
2021/07/13 00:59:19;;;;;;;5.07;3.67;;;20.40;99.90;;;;;;5032442;28;20476;-73
2021/07/13 01:02:06;;;;;;;6.20;3.93;;;20.40;99.90;;;;;;5035661;28;20484;-74
2021/07/13 01:04:58;;;;;;;5.47;3.73;;;20.40;99.90;;;;;;5028735;28;20433;-73
2021/07/13 01:07:52;;;;;;;8.00;4.60;;;20.40;99.90;;;;;;5044218;28;20525;-74
2021/07/13 01:10:46;;;;;;;10.50;4.17;;;20.40;99.90;;;;;;5038179;28;20971;-74
2021/07/13 01:13:39;;;;;;;5.10;4.27;;;20.40;99.90;;;;;;5012451;28;20399;-74
2021/07/13 01:16:34;;;;;;;4.67;4.17;;;20.40;99.90;;;;;;5024146;28;20423;-74
2021/07/13 01:19:41;;;;;;;5.00;3.90;;;20.40;99.90;;;;;;5021911;28;20802;-74
2021/07/13 01:22:32;;;;;;;6.43;4.40;;;20.50;99.90;;;;;;5011893;28;20544;-74
2021/07/13 01:25:27;;;;;;;7.07;4.53;;;20.50;99.90;;;;;;5023749;28;20481;-74
2021/07/13 01:28:17;;;;;;;7.33;5.13;;;20.50;99.90;;;;;;5017426;28;20590;-74
2021/07/13 01:31:07;;;;;;;9.20;4.50;;;20.50;99.90;;;;;;5030592;28;20451;-74
2021/07/13 01:33:57;;;;;;;7.53;4.23;;;20.50;99.90;;;;;;5012600;28;20446;-73
2021/07/13 01:36:45;;;;;;;6.60;4.27;;;20.50;99.90;;;;;;5028178;28;20481;-73
2021/07/13 01:39:32;;;;;;;8.60;4.73;;;20.40;99.90;;;;;;5030970;28;20916;-74
2021/07/13 01:42:18;;;;;;;5.00;4.50;;;20.40;99.90;;;;;;5029523;28;20562;-73
2021/07/13 01:45:07;;;;;;;6.63;5.20;;;20.40;99.90;;;;;;5035737;28;20940;-73
2021/07/13 01:47:54;;;;;;;8.23;5.57;;;20.40;99.90;;;;;;5031247;28;20456;-74
2021/07/13 01:50:43;;;;;;;8.47;5.80;;;20.40;99.90;;;;;;5024314;28;20443;-73
2021/07/13 01:53:30;;;;;;;5.60;4.23;;;20.40;99.90;;;;;;5030752;28;20939;-73
2021/07/13 01:56:17;;;;;;;11.03;4.90;;;20.40;99.90;;;;;;5026534;28;20453;-74
2021/07/13 01:59:04;;;;;;;6.33;4.60;;;20.40;99.90;;;;;;5030221;28;20426;-74
2021/07/13 02:01:55;;;;;;;7.97;5.13;;;20.40;99.90;;;;;;5034102;28;20522;-73
2021/07/13 02:04:43;;;;;;;9.93;4.90;;;20.30;99.90;;;;;;5039666;28;20453;-74
2021/07/13 02:07:32;;;;;;;15.17;5.80;;;20.40;99.90;;;;;;5031047;28;20423;-73
2021/07/13 02:10:20;;;;;;;6.53;5.70;;;20.40;99.90;;;;;;5043262;23;20503;-75
2021/07/13 02:13:08;;;;;;;6.70;5.77;;;20.30;99.90;;;;;;5049134;28;20454;-75
2021/07/13 02:15:54;;;;;;;7.47;6.70;;;20.20;99.90;;;;;;5046528;28;20444;-75
2021/07/13 02:18:41;;;;;;;10.80;7.00;;;20.00;99.90;;;;;;5049145;28;20558;-75
2021/07/13 02:21:26;;;;;;;12.60;6.27;;;19.90;99.90;;;;;;5038890;28;20441;-75
2021/07/13 02:24:12;;;;;;;9.53;5.87;;;20.00;99.90;;;;;;5037387;28;20542;-75
2021/07/13 02:27:02;;;;;;;6.77;5.53;;;20.00;99.90;;;;;;5048376;28;20451;-75
2021/07/13 02:29:52;;;;;;;9.23;4.33;;;20.20;99.90;;;;;;5049305;28;20446;-75
2021/07/13 02:32:45;;;;;;;6.53;5.10;;;20.20;99.90;;;;;;5047639;28;20437;-75
2021/07/13 02:35:38;;;;;;;8.23;5.23;;;20.10;99.90;;;;;;5045731;28;20898;-75
2021/07/13 02:38:25;;;;;;;16.40;5.13;;;20.10;99.90;;;;;;5050656;28;21102;-75
2021/07/13 02:41:11;;;;;;;6.33;5.30;;;20.10;99.90;;;;;;5048798;28;20468;-75
2021/07/13 02:43:57;;;;;;;11.13;5.60;;;20.10;99.90;;;;;;5046117;28;20460;-75
2021/07/13 02:46:44;;;;;;;8.73;4.83;;;20.10;99.90;;;;;;5047308;28;20955;-75
2021/07/13 02:49:33;;;;;;;8.07;5.27;;;20.10;99.90;;;;;;5044438;28;20533;-75
2021/07/13 02:52:23;;;;;;;5.50;4.40;;;20.10;99.90;;;;;;5051591;28;20438;-75
2021/07/13 02:55:12;;;;;;;12.00;5.60;;;20.00;99.90;;;;;;5046019;28;20429;-75
2021/07/13 02:58:00;;;;;;;5.50;4.33;;;19.90;99.90;;;;;;5047400;28;20450;-75
2021/07/13 03:00:47;;;;;;;6.13;4.83;;;19.90;99.90;;;;;;5044737;28;20489;-75
2021/07/13 03:03:32;;;;;;;6.70;4.40;;;19.90;99.90;;;;;;5041737;28;20485;-75
2021/07/13 03:06:20;;;;;;;8.30;4.80;;;20.00;99.90;;;;;;5045047;28;20432;-75
2021/07/13 03:09:08;;;;;;;6.40;5.17;;;20.00;99.90;;;;;;5049489;28;20533;-75
2021/07/13 03:11:54;;;;;;;6.73;4.10;;;20.00;99.90;;;;;;5047735;28;20408;-75
2021/07/13 03:14:42;;;;;;;7.37;4.80;;;19.90;99.90;;;;;;5045718;28;20506;-75
2021/07/13 03:17:28;;;;;;;10.80;4.90;;;19.90;99.90;;;;;;5052191;28;20418;-75
2021/07/13 03:20:13;;;;;;;4.97;4.47;;;19.90;99.90;;;;;;5051598;28;20462;-75
2021/07/13 03:23:00;;;;;;;8.80;4.80;;;19.90;99.90;;;;;;5044626;28;20693;-75
2021/07/13 03:25:49;;;;;;;6.17;4.10;;;20.00;99.90;;;;;;5050692;28;20552;-75
2021/07/13 03:28:36;;;;;;;7.50;4.80;;;20.00;99.90;;;;;;5044971;28;20585;-75
2021/07/13 03:31:22;;;;;;;11.03;5.13;;;20.00;99.90;;;;;;5049966;28;20470;-75
2021/07/13 03:34:08;;;;;;;4.80;4.30;;;20.00;99.90;;;;;;5050486;28;20551;-75
2021/07/13 03:36:54;;;;;;;7.23;4.00;;;20.10;99.90;;;;;;5043450;28;20489;-75
2021/07/13 03:39:41;;;;;;;12.80;5.07;;;20.00;99.90;;;;;;5042863;28;20502;-75
2021/07/13 03:42:28;;;;;;;5.57;4.97;;;20.00;99.90;;;;;;5051040;28;20511;-75
2021/07/13 03:45:17;;;;;;;8.97;6.30;;;20.10;99.90;;;;;;5041231;28;20443;-75
2021/07/13 03:48:03;;;;;;;9.97;5.60;;;20.00;99.90;;;;;;5047151;28;20824;-75
2021/07/13 03:50:49;;;;;;;7.70;5.80;;;20.00;99.90;;;;;;5038203;28;20491;-75
2021/07/13 03:53:35;;;;;;;8.30;5.57;;;20.10;99.90;;;;;;5046156;28;20946;-75
2021/07/13 03:56:20;;;;;;;11.10;5.87;;;20.10;99.90;;;;;;5048413;28;20941;-75
2021/07/13 03:59:08;;;;;;;7.47;6.03;;;20.20;99.90;;;;;;5048763;28;20392;-75
2021/07/13 04:01:55;;;;;;;7.10;6.20;;;20.10;99.90;;;;;;5049921;28;20448;-75
2021/07/13 04:04:40;;;;;;;6.57;5.70;;;20.20;99.90;;;;;;5034655;28;20520;-74
2021/07/13 04:07:26;;;;;;;8.13;5.27;;;20.20;99.90;;;;;;5048806;28;20507;-75
2021/07/13 04:10:13;;;;;;;6.80;4.97;;;20.10;99.90;;;;;;5050294;28;20462;-74
2021/07/13 04:12:58;;;;;;;6.07;5.00;;;20.10;99.90;;;;;;5043369;28;20451;-75
2021/07/13 04:15:45;;;;;;;8.90;5.03;;;20.10;99.90;;;;;;5042881;28;20603;-75
2021/07/13 04:18:31;;;;;;;6.77;5.60;;;20.00;99.90;;;;;;5042572;28;20437;-76
2021/07/13 04:21:17;;;;;;;7.63;5.83;;;20.00;99.90;;;;;;5042929;28;20520;-75
2021/07/13 04:24:02;;;;;;;8.63;6.70;;;20.00;99.90;;;;;;5046904;28;20588;-75
2021/07/13 04:26:48;;;;;;;6.37;5.40;;;20.00;99.90;;;;;;5046793;28;20432;-75
2021/07/13 04:29:34;;;;;;;7.53;5.03;;;19.90;99.90;;;;;;5042550;28;20441;-75
2021/07/13 04:32:21;;;;;;;10.20;5.93;;;19.90;99.90;;;;;;5042975;28;20439;-75
2021/07/13 04:35:08;;;;;;;8.07;5.53;;;20.00;99.90;;;;;;5045281;28;20417;-75
2021/07/13 04:37:53;;;;;;;13.50;5.30;;;20.00;99.90;;;;;;5051907;28;20417;-75
2021/07/13 04:40:39;;;;;;;8.03;6.33;;;20.10;99.90;;;;;;5045565;28;20906;-75
2021/07/13 04:43:25;;;;;;;6.90;5.07;;;20.00;99.90;;;;;;5043962;28;20564;-75
2021/07/13 04:46:10;;;;;;;6.00;4.70;;;20.00;99.90;;;;;;5047563;28;21072;-74
2021/07/13 04:48:59;;;;;;;8.50;5.20;;;20.10;99.90;;;;;;5045269;28;20456;-75
2021/07/13 04:51:44;;;;;;;11.23;5.90;;;20.10;99.90;;;;;;5047067;28;20820;-75
2021/07/13 04:54:33;;;;;;;11.27;7.30;;;20.10;99.90;;;;;;5050177;28;20418;-75
2021/07/13 04:57:19;;;;;;;14.53;6.70;;;20.00;99.90;;;;;;5044382;28;20415;-75
2021/07/13 05:00:06;;;;;;;6.20;5.60;;;20.10;99.90;;;;;;5046165;28;20480;-75
2021/07/13 05:02:52;;;;;;;10.80;7.60;;;20.10;99.90;;;;;;5051466;28;21050;-75
2021/07/13 05:05:39;;;;;;;9.20;5.80;;;20.10;99.90;;;;;;5049470;28;21255;-75
2021/07/13 05:08:25;;;;;;;7.97;5.70;;;20.10;99.90;;;;;;5049033;28;20961;-75
2021/07/13 05:11:10;;;;;;;8.70;7.00;;;20.10;99.90;;;;;;5044900;28;20482;-75
2021/07/13 05:13:56;;;;;;;9.30;5.43;;;20.10;99.90;;;;;;5049628;28;20443;-75
2021/07/13 05:16:41;;;;;;;10.23;6.10;;;20.10;99.90;;;;;;5048035;28;20481;-75
2021/07/13 05:19:27;;;;;;;11.33;6.57;;;20.00;99.90;;;;;;5049955;28;20552;-75
2021/07/13 05:22:14;;;;;;;10.10;6.30;;;20.00;99.90;;;;;;5049048;28;20998;-75
2021/07/13 05:24:59;;;;;;;9.53;5.97;;;20.00;99.90;;;;;;5045302;28;20541;-75
2021/07/13 05:27:45;;;;;;;7.60;5.27;;;20.00;99.90;;;;;;5042708;28;20584;-75
2021/07/13 05:30:31;;;;;;;6.00;4.70;;;19.90;99.90;;;;;;5044799;28;20549;-75
2021/07/13 05:33:17;;;;;;;7.57;5.73;;;19.90;99.90;;;;;;5047188;28;20553;-74
2021/07/13 05:36:03;;;;;;;11.60;5.30;;;19.90;99.90;;;;;;5046100;28;20933;-74
2021/07/13 05:38:50;;;;;;;4.90;4.33;;;19.90;99.90;;;;;;5044312;28;20426;-75
2021/07/13 05:41:37;;;;;;;5.80;4.60;;;20.00;99.90;;;;;;5040842;28;20443;-75
2021/07/13 05:44:22;;;;;;;6.57;5.27;;;20.00;99.90;;;;;;5043691;28;20422;-75
2021/07/13 05:47:08;;;;;;;6.40;4.83;;;20.00;99.90;;;;;;5044462;28;20588;-75
2021/07/13 05:49:54;;;;;;;7.13;6.03;;;20.10;99.90;;;;;;5041929;28;20475;-75
2021/07/13 05:52:40;;;;;;;5.63;4.77;;;20.10;99.90;;;;;;5042641;28;20453;-75
2021/07/13 05:55:28;;;;;;;5.87;4.40;;;20.00;99.90;;;;;;5042137;28;20438;-75
2021/07/13 05:58:13;;;;;;;5.07;4.00;;;20.00;99.90;;;;;;5047811;28;20437;-75
2021/07/13 06:00:59;;;;;;;4.93;4.20;;;20.10;99.90;;;;;;5049770;28;20829;-75
2021/07/13 06:03:44;;;;;;;4.40;3.80;;;20.10;99.90;;;;;;5050156;28;20969;-75
2021/07/13 06:06:30;;;;;;;6.07;5.07;;;20.10;99.90;;;;;;5049174;28;20502;-75
2021/07/13 06:09:15;;;;;;;8.30;5.20;;;20.20;99.90;;;;;;5058425;28;20775;-75
2021/07/13 06:12:02;;;;;;;9.93;4.60;;;20.20;99.90;;;;;;5053709;28;20586;-75
2021/07/13 06:14:48;;;;;;;5.30;4.80;;;20.30;99.90;;;;;;5046835;28;20489;-75
2021/07/13 06:17:34;;;;;;;5.67;4.77;;;20.30;99.90;;;;;;5051028;28;20817;-75
2021/07/13 06:20:19;;;;;;;5.90;4.90;;;20.40;99.90;;;;;;5051360;28;20475;-75
2021/07/13 06:23:05;;;;;;;19.67;6.30;;;20.50;99.90;;;;;;5049489;28;20467;-75
2021/07/13 06:25:51;;;;;;;5.73;5.20;;;20.50;99.90;;;;;;5042778;28;20434;-75
2021/07/13 06:28:38;;;;;;;7.00;5.00;;;20.50;99.90;;;;;;5053276;28;20967;-75
2021/07/13 06:31:23;;;;;;;6.10;5.10;;;20.50;99.90;;;;;;5053578;28;20557;-75
2021/07/13 06:34:11;;;;;;;5.80;5.20;;;20.50;99.90;;;;;;5051553;28;20444;-75
2021/07/13 06:36:57;;;;;;;6.43;5.30;;;20.50;99.90;;;;;;5041004;28;20419;-75
2021/07/13 06:39:42;;;;;;;5.60;5.10;;;20.50;99.90;;;;;;5049677;28;20467;-75
2021/07/13 06:42:28;;;;;;;5.70;5.00;;;20.60;99.90;;;;;;5051245;28;20611;-75
2021/07/13 06:45:15;;;;;;;7.57;5.60;;;20.60;99.90;;;;;;5051804;28;20425;-75
2021/07/13 06:48:01;;;;;;;7.70;5.30;;;20.60;99.90;;;;;;5047072;28;20553;-75
2021/07/13 06:50:47;;;;;;;5.80;5.17;;;20.60;99.90;;;;;;5043615;28;20485;-75
2021/07/13 06:53:32;;;;;;;5.50;4.93;;;20.70;99.90;;;;;;5048915;28;20482;-75
2021/07/13 06:56:18;;;;;;;6.03;5.43;;;20.70;99.90;;;;;;5044175;28;20425;-75
2021/07/13 06:59:04;;;;;;;6.17;5.13;;;20.80;99.90;;;;;;5041469;28;20507;-75
2021/07/13 07:01:51;;;;;;;6.27;5.53;;;20.80;99.90;;;;;;5051634;28;20833;-75
2021/07/13 07:04:37;;;;;;;5.90;4.80;;;20.80;99.90;;;;;;5046234;28;20536;-75
2021/07/13 07:07:23;;;;;;;6.50;5.43;;;20.80;99.90;;;;;;5053462;28;20425;-75
2021/07/13 07:10:09;;;;;;;10.60;5.40;;;20.80;99.90;;;;;;5048917;28;20455;-75
2021/07/13 07:12:55;;;;;;;7.83;5.33;;;20.80;99.90;;;;;;5051917;28;20510;-75
2021/07/13 07:15:40;;;;;;;6.50;5.83;;;20.80;99.90;;;;;;5052863;28;20506;-76
2021/07/13 07:18:27;;;;;;;6.03;4.97;;;20.80;99.90;;;;;;5053556;28;20405;-75
2021/07/13 07:21:13;;;;;;;8.37;5.67;;;20.80;99.90;;;;;;5053330;28;20423;-75
2021/07/13 07:23:58;;;;;;;6.37;4.93;;;20.80;99.90;;;;;;5045874;28;20986;-75
2021/07/13 07:26:44;;;;;;;7.73;5.07;;;20.80;99.90;;;;;;5047887;28;20498;-75
2021/07/13 07:29:29;;;;;;;5.07;4.57;;;20.90;99.90;;;;;;5051471;28;20491;-75
2021/07/13 07:32:15;;;;;;;5.63;4.50;;;20.90;99.90;;;;;;5048584;28;20434;-76
2021/07/13 07:35:03;;;;;;;10.50;5.07;;;20.90;99.90;;;;;;5050173;28;20465;-75
2021/07/13 07:37:49;;;;;;;5.03;4.53;;;20.90;99.90;;;;;;5051012;28;20829;-76
2021/07/13 07:40:35;;;;;;;5.33;4.83;;;20.90;99.90;;;;;;5049109;28;20467;-75
2021/07/13 07:43:21;;;;;;;5.27;4.77;;;20.90;99.90;;;;;;5046321;28;20467;-75
2021/07/13 07:46:07;;;;;;;6.57;5.23;;;20.80;99.90;;;;;;5051055;28;20571;-75
2021/07/13 07:48:53;;;;;;;4.90;4.37;;;20.80;99.90;;;;;;5033056;28;20934;-75
2021/07/13 07:51:39;;;;;;;6.70;4.80;;;20.80;99.90;;;;;;5047873;28;20506;-75
2021/07/13 07:54:25;;;;;;;8.63;5.13;;;20.80;99.90;;;;;;5048052;28;20432;-75
2021/07/13 07:57:10;;;;;;;7.03;4.93;;;20.70;99.90;;;;;;5052736;28;20406;-75
2021/07/13 07:59:56;;;;;;;6.47;5.53;;;20.70;99.90;;;;;;5037057;28;21004;-75
2021/07/13 08:02:42;;;;;;;6.83;6.13;;;20.70;99.90;;;;;;5045662;28;20972;-75
2021/07/13 08:05:32;;;;;;;11.30;5.70;;;20.80;99.90;;;;;;5052086;28;20567;-76
2021/07/13 08:08:19;;;;;;;7.17;5.03;;;20.80;99.90;;;;;;5049484;28;20437;-76
2021/07/13 08:11:05;;;;;;;7.13;6.07;;;20.80;99.90;;;;;;5062941;23;20838;-73
2021/07/13 08:13:51;;;;;;;6.67;5.57;;;20.80;99.90;;;;;;5040635;28;20432;-72
2021/07/13 08:16:38;;;;;;;7.37;5.60;;;20.80;99.90;;;;;;5032496;28;20492;-72
2021/07/13 08:19:23;;;;;;;6.37;5.30;;;20.70;99.90;;;;;;5032674;28;20432;-72
2021/07/13 08:22:10;;;;;;;6.40;5.17;;;20.70;99.90;;;;;;5012787;28;20474;-72
2021/07/13 08:24:56;;;;;;;7.97;6.33;;;20.70;99.90;;;;;;5012004;28;20787;-72
2021/07/13 08:27:42;;;;;;;6.40;5.80;;;20.70;99.90;;;;;;5012465;28;20418;-72
2021/07/13 08:30:30;;;;;;;8.03;6.10;;;20.80;99.90;;;;;;5012336;28;20461;-72
2021/07/13 08:33:16;;;;;;;15.90;5.20;;;20.80;99.90;;;;;;5012853;28;20420;-72
2021/07/13 08:36:02;;;;;;;7.10;5.90;;;20.60;99.90;;;;;;5011885;28;20410;-72
2021/07/13 08:38:47;;;;;;;10.30;6.70;;;20.60;99.90;;;;;;5011688;28;20399;-72
2021/07/13 08:41:36;;;;;;;9.20;6.00;;;20.60;99.90;;;;;;5017319;28;20472;-72
2021/07/13 08:44:22;;;;;;;10.83;6.13;;;20.60;99.90;;;;;;5007637;28;20497;-72
2021/07/13 08:47:07;;;;;;;7.83;6.17;;;20.70;99.90;;;;;;5012252;28;20432;-72
2021/07/13 08:49:53;;;;;;;9.63;7.20;;;20.70;99.90;;;;;;5012391;28;20773;-72
2021/07/13 08:52:39;;;;;;;7.53;6.73;;;20.80;99.90;;;;;;5011959;28;20505;-72
2021/07/13 08:55:26;;;;;;;7.90;7.10;;;20.70;99.90;;;;;;5003119;28;20487;-72
2021/07/13 08:58:14;;;;;;;8.17;7.37;;;20.70;99.90;;;;;;5009849;28;20438;-72
2021/07/13 09:01:00;;;;;;;11.63;7.93;;;20.70;99.90;;;;;;5031661;28;20439;-73
2021/07/13 09:03:57;;;;;;;10.40;7.90;;;20.70;99.90;;;;;;4992083;28;20815;-73
2021/07/13 09:06:53;;;;;;;8.47;7.37;;;20.70;99.90;;;;;;4992037;28;21182;-72
2021/07/13 09:09:40;;;;;;;9.33;8.43;;;20.70;99.90;;;;;;4999820;28;20422;-73
2021/07/13 09:12:26;;;;;;;10.23;8.13;;;20.60;99.90;;;;;;5012640;28;20418;-73
2021/07/13 09:15:17;;;;;;;11.33;8.70;;;20.60;99.90;;;;;;5008039;28;20398;-72
2021/07/13 09:18:04;;;;;;;9.27;8.43;;;20.60;99.90;;;;;;5008040;28;20453;-73
2021/07/13 09:21:04;;;;;;;9.73;8.83;;;20.60;99.90;;;;;;5011742;28;20584;-73
2021/07/13 09:24:04;;;;;;;10.20;9.30;;;20.60;99.90;;;;;;5017548;28;20527;-73
2021/07/13 09:26:52;;;;;;;9.60;8.70;;;20.60;99.90;;;;;;5012284;28;20428;-73
2021/07/13 09:29:40;;;;;;;13.17;9.43;;;20.60;99.90;;;;;;5011822;28;20456;-72
2021/07/13 09:32:29;;;;;;;11.50;9.67;;;20.60;99.90;;;;;;5020112;28;20606;-72
2021/07/13 09:35:20;;;;;;;10.20;9.27;;;20.60;99.90;;;;;;5028068;28;20991;-72
2021/07/13 09:38:06;;;;;;;13.03;10.00;;;20.60;99.90;;;;;;5011855;28;20428;-72
2021/07/13 09:41:00;;;;;;;10.50;9.50;;;20.60;99.90;;;;;;5018723;28;20423;-72
2021/07/13 09:43:52;;;;;;;11.17;9.17;;;20.70;99.90;;;;;;5010082;28;20535;-72
2021/07/13 09:46:41;;;;;;;10.70;9.70;;;20.70;99.90;;;;;;5010871;28;20643;-72
2021/07/13 09:49:29;;;;;;;10.67;9.60;;;20.80;99.90;;;;;;5011638;28;20430;-72
2021/07/13 09:52:23;;;;;;;10.23;9.23;;;20.80;99.90;;;;;;5011074;28;20479;-72
2021/07/13 09:55:16;;;;;;;10.27;8.60;;;20.90;99.90;;;;;;5009945;28;20460;-72
2021/07/13 09:58:13;;;;;;;10.10;9.10;;;21.00;99.90;;;;;;5011302;28;20421;-72
2021/07/13 10:00:59;;;;;;;9.83;8.83;;;21.00;99.90;;;;;;5009893;28;20432;-73
2021/07/13 10:03:44;;;;;;;10.70;9.70;;;21.00;99.90;;;;;;4991376;28;20466;-72
2021/07/13 10:06:33;;;;;;;9.70;8.80;;;21.10;99.90;;;;;;5004393;28;20525;-72
2021/07/13 10:09:21;;;;;;;10.60;9.60;;;21.10;99.90;;;;;;5012062;28;20412;-72
2021/07/13 10:12:14;;;;;;;19.03;10.33;;;21.20;99.90;;;;;;5018571;28;20538;-72
2021/07/13 10:15:01;;;;;;;10.27;9.20;;;21.40;99.90;;;;;;5009474;28;20462;-72
2021/07/13 10:17:47;;;;;;;10.90;9.80;;;21.50;99.90;;;;;;4999594;28;20983;-72
2021/07/13 10:20:34;;;;;;;9.73;8.83;;;21.70;99.90;;;;;;4991520;28;20444;-72
2021/07/13 10:23:22;;;;;;;8.20;7.50;;;21.90;99.90;;;;;;4991622;28;20500;-72
2021/07/13 10:26:10;;;;;;;9.27;8.27;;;22.00;99.90;;;;;;4990877;28;20778;-72
2021/07/13 10:28:56;;;;;;;7.57;6.87;;;22.10;99.90;;;;;;4991790;28;20482;-72
2021/07/13 10:31:42;;;;;;;8.67;7.87;;;22.00;99.90;;;;;;5004268;28;20829;-72
2021/07/13 10:34:49;;;;;;;8.07;7.30;;;22.00;99.90;;;;;;5010914;28;20394;-73
2021/07/13 10:37:36;;;;;;;8.30;7.40;;;22.00;99.90;;;;;;5010844;28;20449;-72
2021/07/13 10:40:42;;;;;;;7.07;6.37;;;22.00;99.90;;;;;;5017711;28;20440;-72
2021/07/13 10:43:34;;;;;;;8.80;6.53;;;22.00;99.90;;;;;;5029384;28;20575;-72
2021/07/13 10:46:20;;;;;;;6.20;5.60;;;22.00;99.90;;;;;;5008745;28;20496;-72
2021/07/13 10:49:18;;;;;;;6.43;5.87;;;21.90;99.90;;;;;;5011391;28;20842;-72
2021/07/13 10:52:04;;;;;;;8.50;7.40;;;21.70;99.90;;;;;;5014295;28;20416;-72
2021/07/13 10:54:50;;;;;;;2.40;1.53;;;21.70;99.90;;;;;;5014085;28;20773;-72
2021/07/13 10:57:37;;;;;;;1.77;1.10;;;20.70;99.90;;;;;;4994563;28;20505;-72
2021/07/13 11:01:01;;;;;;;3.50;0.87;;;20.00;99.90;;;;;;4994913;28;20449;-72
2021/07/13 11:04:14;;;;;;;1.93;0.70;;;19.70;99.90;;;;;;4994287;28;20575;-72
2021/07/13 11:07:00;;;;;;;6.90;0.77;;;19.40;99.90;;;;;;4975883;28;20416;-72
2021/07/13 11:09:46;;;;;;;1.80;0.77;;;19.00;99.90;;;;;;5007809;28;20402;-72
2021/07/13 11:12:31;;;;;;;3.90;0.87;;;18.80;99.90;;;;;;5025685;28;20547;-72
2021/07/13 11:15:18;;;;;;;6.10;0.63;;;18.50;99.90;;;;;;5033493;28;20399;-72
2021/07/13 11:18:04;;;;;;;3.37;0.50;;;18.10;99.90;;;;;;5033536;28;20945;-72
2021/07/13 11:20:50;;;;;;;2.50;0.50;;;17.80;99.90;;;;;;5033624;28;20969;-72
2021/07/13 11:23:35;;;;;;;1.23;0.40;;;17.50;99.90;;;;;;5033585;28;20443;-74
2021/07/13 11:26:24;;;;;;;1.20;0.50;;;17.20;99.90;;;;;;5033294;28;21025;-74
2021/07/13 11:29:17;;;;;;;1.10;0.40;;;17.20;99.90;;;;;;5033291;28;20768;-74
2021/07/13 11:32:05;;;;;;;1.53;0.50;;;17.20;99.90;;;;;;5033429;28;20417;-74
2021/07/13 11:34:51;;;;;;;2.73;0.43;;;17.20;99.90;;;;;;5032996;28;20393;-74
2021/07/13 11:37:36;;;;;;;1.40;0.50;;;17.40;99.90;;;;;;5033358;28;20403;-72
2021/07/13 11:40:21;;;;;;;1.40;0.40;;;17.50;99.90;;;;;;5026104;28;20976;-72
2021/07/13 11:43:07;;;;;;;2.03;0.40;;;17.40;99.90;;;;;;5029353;28;20525;-72
2021/07/13 11:46:10;;;;;;;1.30;0.50;;;17.30;99.90;;;;;;5027837;28;20502;-72
2021/07/13 11:49:00;;;;;;;1.10;0.40;;;17.20;99.90;;;;;;5013497;28;20420;-72
2021/07/13 11:51:54;;;;;;;1.20;0.50;;;17.30;99.90;;;;;;5012906;28;20456;-72
2021/07/13 11:54:41;;;;;;;1.10;0.40;;;17.10;99.90;;;;;;5013054;28;20410;-72
2021/07/13 11:57:26;;;;;;;1.43;0.70;;;17.20;99.90;;;;;;5013421;28;20943;-72
2021/07/13 12:00:13;;;;;;;1.87;0.73;;;17.30;99.90;;;;;;5012654;28;20427;-73
2021/07/13 12:02:59;;;;;;;3.30;0.50;;;17.40;99.90;;;;;;5012949;28;20563;-72
2021/07/13 12:05:45;;;;;;;1.40;0.53;;;17.50;99.90;;;;;;5012759;28;20984;-72
2021/07/13 12:08:32;;;;;;;1.10;0.40;;;17.50;99.90;;;;;;5012934;28;20398;-72
2021/07/13 12:11:23;;;;;;;1.60;0.50;;;17.50;99.90;;;;;;5019343;28;20454;-72
2021/07/13 12:14:11;;;;;;;1.30;0.50;;;17.50;99.90;;;;;;5032595;28;20428;-72
2021/07/13 12:16:58;;;;;;;1.30;0.50;;;17.60;99.90;;;;;;5032296;28;20427;-72
2021/07/13 12:19:44;;;;;;;1.40;0.53;;;17.40;99.90;;;;;;5032912;28;21066;-72
2021/07/13 12:22:32;;;;;;;2.37;0.90;;;17.40;99.90;;;;;;5032421;28;20397;-72
2021/07/13 12:25:22;;;;;;;1.70;0.73;;;17.30;99.90;;;;;;5032502;28;20475;-72
2021/07/13 12:28:11;;;;;;;1.63;0.57;;;17.40;99.90;;;;;;5032502;28;20793;-73
2021/07/13 12:31:10;;;;;;;1.40;0.60;;;17.40;99.90;;;;;;5032294;28;20442;-72
2021/07/13 12:33:56;;;;;;;4.60;0.70;;;17.50;99.90;;;;;;5032461;28;20438;-72
2021/07/13 12:36:42;;;;;;;1.20;0.60;;;17.50;99.90;;;;;;5031839;28;20478;-72
2021/07/13 12:39:29;;;;;;;2.50;0.50;;;17.50;99.90;;;;;;5026682;28;20506;-72
2021/07/13 12:42:22;;;;;;;1.33;0.70;;;17.40;99.90;;;;;;5023722;28;20878;-72
2021/07/13 12:45:13;;;;;;;1.20;0.60;;;17.40;99.90;;;;;;5021407;28;20451;-72
2021/07/13 12:48:02;;;;;;;1.20;0.50;;;17.40;99.90;;;;;;5012152;28;20490;-72
2021/07/13 12:50:49;;;;;;;1.30;0.50;;;17.40;99.90;;;;;;5012255;28;20446;-72
2021/07/13 12:53:35;;;;;;;3.03;0.90;;;17.40;99.90;;;;;;5012073;28;20925;-72
2021/07/13 12:56:22;;;;;;;1.60;0.80;;;17.30;99.90;;;;;;5012022;28;20499;-72
2021/07/13 12:59:08;;;;;;;1.50;0.60;;;17.40;99.90;;;;;;5012132;28;20447;-72
2021/07/13 13:01:54;;;;;;;1.70;0.60;;;17.60;99.90;;;;;;5012096;28;20422;-72
2021/07/13 13:04:43;;;;;;;2.73;0.60;;;17.60;99.90;;;;;;5011456;28;21051;-72
2021/07/13 13:07:29;;;;;;;4.80;1.73;;;17.50;99.90;;;;;;5012243;28;20420;-72
2021/07/13 13:10:27;;;;;;;1.57;0.70;;;17.70;99.90;;;;;;5019771;28;20535;-72
2021/07/13 13:13:24;;;;;;;1.70;0.73;;;17.60;99.90;;;;;;5028578;28;20529;-72
2021/07/13 13:16:21;;;;;;;1.70;0.70;;;17.60;99.90;;;;;;5031227;28;20436;-72
2021/07/13 13:19:08;;;;;;;1.20;0.60;;;17.50;99.90;;;;;;5031374;28;20442;-72
2021/07/13 13:21:54;;;;;;;4.40;0.70;;;17.60;99.90;;;;;;5031417;28;20444;-72
2021/07/13 13:24:40;;;;;;;1.50;0.60;;;17.40;99.90;;;;;;5031047;28;20488;-72
2021/07/13 13:27:28;;;;;;;2.17;0.73;;;17.30;99.90;;;;;;5031366;28;20402;-72
2021/07/13 13:30:17;;;;;;;1.53;0.60;;;17.40;99.90;;;;;;5031082;28;20497;-72
2021/07/13 13:33:03;;;;;;;2.47;0.60;;;17.50;99.90;;;;;;5031457;28;20994;-72
2021/07/13 13:36:01;;;;;;;1.50;0.80;;;17.70;99.90;;;;;;5030646;28;20397;-72
2021/07/13 13:38:53;;;;;;;1.30;0.60;;;17.80;99.90;;;;;;5030581;28;20769;-72
2021/07/13 13:41:39;;;;;;;2.03;0.70;;;18.00;99.90;;;;;;5010412;28;20562;-72
2021/07/13 13:44:24;;;;;;;1.60;0.60;;;18.00;99.90;;;;;;5011275;28;20785;-72
2021/07/13 13:47:12;;;;;;;4.53;0.80;;;17.90;99.90;;;;;;5011523;28;20423;-72
2021/07/13 13:49:57;;;;;;;1.10;0.50;;;17.90;99.90;;;;;;5011480;28;20961;-72
2021/07/13 13:52:43;;;;;;;1.20;0.50;;;17.90;99.90;;;;;;5011160;28;20422;-72
2021/07/13 13:55:29;;;;;;;1.27;0.57;;;17.90;99.90;;;;;;5011041;28;20909;-72
2021/07/13 13:58:15;;;;;;;1.47;0.77;;;17.80;99.90;;;;;;5011218;28;20402;-72
2021/07/13 14:01:00;;;;;;;1.33;0.60;;;17.50;99.90;;;;;;5011330;28;20423;-72
2021/07/13 14:03:48;;;;;;;1.93;0.60;;;17.40;99.90;;;;;;5011522;28;20423;-72
2021/07/13 14:06:33;;;;;;;2.50;0.70;;;17.40;99.90;;;;;;5010635;28;20445;-72
2021/07/13 14:09:19;;;;;;;1.17;0.50;;;17.50;99.90;;;;;;5012330;28;20406;-72
2021/07/13 14:12:06;;;;;;;3.43;1.07;;;17.30;99.90;;;;;;5061169;23;20540;-75
2021/07/13 14:14:55;;;;;;;3.50;1.10;;;17.40;99.90;;;;;;5050590;28;20410;-75
2021/07/13 14:17:42;;;;;;;1.80;0.77;;;17.40;99.90;;;;;;5050780;28;20864;-75
2021/07/13 14:20:29;;;;;;;1.70;0.90;;;17.70;99.90;;;;;;5050567;28;20530;-75
2021/07/13 14:23:15;;;;;;;1.50;0.80;;;17.80;99.90;;;;;;5050454;28;20429;-75
2021/07/13 14:26:01;;;;;;;1.30;0.63;;;18.10;99.90;;;;;;5054070;28;20445;-75
2021/07/13 14:28:47;;;;;;;1.47;0.60;;;18.10;99.90;;;;;;5054487;28;20404;-75
2021/07/13 14:31:32;;;;;;;1.30;0.53;;;18.20;99.90;;;;;;5054430;28;20416;-75